sensor_id;sensor_type;location;lat;lon;timestamp;P1;durP1;ratioP1;P2;durP2;ratioP2
38117;SDS011;23928;47.562;7.508;2023-11-21T00:00:14;2.23;;;0.97;;
38117;SDS011;23928;47.562;7.508;2023-11-21T00:02:41;3.53;;;1.03;;
38117;SDS011;23928;47.562;7.508;2023-11-21T00:05:07;3.03;;;1.10;;
38117;SDS011;23928;47.562;7.508;2023-11-21T00:07:35;3.07;;;1.10;;
38117;SDS011;23928;47.562;7.508;2023-11-21T00:10:04;3.50;;;1.23;;
38117;SDS011;23928;47.562;7.508;2023-11-21T00:12:35;3.60;;;1.07;;
38117;SDS011;23928;47.562;7.508;2023-11-21T00:15:01;3.23;;;1.23;;
38117;SDS011;23928;47.562;7.508;2023-11-21T00:17:30;3.67;;;1.10;;
38117;SDS011;23928;47.562;7.508;2023-11-21T00:19:55;2.83;;;1.23;;
38117;SDS011;23928;47.562;7.508;2023-11-21T00:22:21;3.20;;;0.80;;
38117;SDS011;23928;47.562;7.508;2023-11-21T00:24:47;3.37;;;1.17;;
38117;SDS011;23928;47.562;7.508;2023-11-21T00:27:13;3.07;;;1.00;;
38117;SDS011;23928;47.562;7.508;2023-11-21T00:29:39;3.37;;;0.83;;
38117;SDS011;23928;47.562;7.508;2023-11-21T00:32:05;3.57;;;1.30;;
38117;SDS011;23928;47.562;7.508;2023-11-21T00:34:31;4.57;;;1.50;;
38117;SDS011;23928;47.562;7.508;2023-11-21T00:36:58;5.73;;;1.20;;
38117;SDS011;23928;47.562;7.508;2023-11-21T00:39:24;4.13;;;1.53;;
38117;SDS011;23928;47.562;7.508;2023-11-21T00:41:51;5.47;;;1.17;;
38117;SDS011;23928;47.562;7.508;2023-11-21T00:44:17;5.70;;;1.33;;
38117;SDS011;23928;47.562;7.508;2023-11-21T00:46:42;4.63;;;1.20;;
38117;SDS011;23928;47.562;7.508;2023-11-21T00:49:08;5.27;;;1.30;;
38117;SDS011;23928;47.562;7.508;2023-11-21T00:51:33;5.10;;;1.27;;
38117;SDS011;23928;47.562;7.508;2023-11-21T00:53:59;3.13;;;1.03;;
38117;SDS011;23928;47.562;7.508;2023-11-21T00:56:25;2.30;;;0.83;;
38117;SDS011;23928;47.562;7.508;2023-11-21T00:58:51;4.60;;;1.10;;
38117;SDS011;23928;47.562;7.508;2023-11-21T01:01:17;3.13;;;1.03;;
38117;SDS011;23928;47.562;7.508;2023-11-21T01:03:45;2.83;;;0.90;;
38117;SDS011;23928;47.562;7.508;2023-11-21T01:06:11;2.33;;;0.93;;
38117;SDS011;23928;47.562;7.508;2023-11-21T01:08:37;2.87;;;1.13;;
38117;SDS011;23928;47.562;7.508;2023-11-21T01:11:02;2.30;;;1.00;;
38117;SDS011;23928;47.562;7.508;2023-11-21T01:13:28;1.40;;;0.87;;
38117;SDS011;23928;47.562;7.508;2023-11-21T01:15:54;3.77;;;0.97;;
38117;SDS011;23928;47.562;7.508;2023-11-21T01:18:20;1.33;;;0.60;;
38117;SDS011;23928;47.562;7.508;2023-11-21T01:20:47;2.57;;;0.93;;
38117;SDS011;23928;47.562;7.508;2023-11-21T01:23:13;1.27;;;0.60;;
38117;SDS011;23928;47.562;7.508;2023-11-21T01:25:39;4.23;;;1.27;;
38117;SDS011;23928;47.562;7.508;2023-11-21T01:28:05;3.67;;;0.60;;
38117;SDS011;23928;47.562;7.508;2023-11-21T01:30:31;1.77;;;0.80;;
38117;SDS011;23928;47.562;7.508;2023-11-21T01:32:57;4.27;;;0.97;;
38117;SDS011;23928;47.562;7.508;2023-11-21T01:35:23;2.33;;;0.90;;
38117;SDS011;23928;47.562;7.508;2023-11-21T01:37:49;4.47;;;1.13;;
38117;SDS011;23928;47.562;7.508;2023-11-21T01:40:14;1.13;;;0.63;;
38117;SDS011;23928;47.562;7.508;2023-11-21T01:42:40;6.10;;;0.97;;
38117;SDS011;23928;47.562;7.508;2023-11-21T01:45:08;2.87;;;1.13;;
38117;SDS011;23928;47.562;7.508;2023-11-21T01:47:34;3.13;;;0.90;;
38117;SDS011;23928;47.562;7.508;2023-11-21T01:50:01;2.53;;;0.60;;
38117;SDS011;23928;47.562;7.508;2023-11-21T01:52:29;3.60;;;1.00;;
38117;SDS011;23928;47.562;7.508;2023-11-21T01:54:55;2.60;;;0.60;;
38117;SDS011;23928;47.562;7.508;2023-11-21T01:57:22;3.27;;;0.60;;
38117;SDS011;23928;47.562;7.508;2023-11-21T01:59:48;1.83;;;0.43;;
38117;SDS011;23928;47.562;7.508;2023-11-21T02:02:15;2.10;;;1.03;;
38117;SDS011;23928;47.562;7.508;2023-11-21T02:04:41;2.63;;;0.60;;
38117;SDS011;23928;47.562;7.508;2023-11-21T02:07:07;2.33;;;0.73;;
38117;SDS011;23928;47.562;7.508;2023-11-21T02:09:32;1.73;;;0.73;;
38117;SDS011;23928;47.562;7.508;2023-11-21T02:11:59;1.13;;;0.70;;
38117;SDS011;23928;47.562;7.508;2023-11-21T02:14:28;2.37;;;0.83;;
38117;SDS011;23928;47.562;7.508;2023-11-21T02:16:54;1.33;;;0.60;;
38117;SDS011;23928;47.562;7.508;2023-11-21T02:19:22;1.67;;;0.60;;
38117;SDS011;23928;47.562;7.508;2023-11-21T02:21:50;2.83;;;0.80;;
38117;SDS011;23928;47.562;7.508;2023-11-21T02:24:23;1.10;;;0.60;;
38117;SDS011;23928;47.562;7.508;2023-11-21T02:26:49;1.33;;;0.90;;
38117;SDS011;23928;47.562;7.508;2023-11-21T02:29:16;1.80;;;1.00;;
38117;SDS011;23928;47.562;7.508;2023-11-21T02:31:46;1.00;;;0.70;;
38117;SDS011;23928;47.562;7.508;2023-11-21T02:34:15;1.73;;;0.60;;
38117;SDS011;23928;47.562;7.508;2023-11-21T02:36:43;1.90;;;0.77;;
38117;SDS011;23928;47.562;7.508;2023-11-21T02:39:09;2.13;;;0.60;;
38117;SDS011;23928;47.562;7.508;2023-11-21T02:41:36;3.07;;;0.70;;
38117;SDS011;23928;47.562;7.508;2023-11-21T02:44:03;4.63;;;0.80;;
38117;SDS011;23928;47.562;7.508;2023-11-21T02:46:31;1.33;;;0.50;;
38117;SDS011;23928;47.562;7.508;2023-11-21T02:48:58;1.60;;;0.60;;
38117;SDS011;23928;47.562;7.508;2023-11-21T02:51:27;2.30;;;0.67;;
38117;SDS011;23928;47.562;7.508;2023-11-21T02:53:53;1.13;;;0.60;;
38117;SDS011;23928;47.562;7.508;2023-11-21T02:56:19;3.50;;;1.97;;
38117;SDS011;23928;47.562;7.508;2023-11-21T02:58:45;1.67;;;1.30;;
38117;SDS011;23928;47.562;7.508;2023-11-21T03:01:10;6.20;;;0.93;;
38117;SDS011;23928;47.562;7.508;2023-11-21T03:03:38;0.97;;;0.43;;
38117;SDS011;23928;47.562;7.508;2023-11-21T03:06:05;2.40;;;0.50;;
38117;SDS011;23928;47.562;7.508;2023-11-21T03:08:31;1.83;;;0.50;;
38117;SDS011;23928;47.562;7.508;2023-11-21T03:10:57;0.40;;;0.40;;
38117;SDS011;23928;47.562;7.508;2023-11-21T03:13:23;1.80;;;0.40;;
38117;SDS011;23928;47.562;7.508;2023-11-21T03:15:48;0.33;;;0.33;;
38117;SDS011;23928;47.562;7.508;2023-11-21T03:18:14;3.70;;;0.57;;
38117;SDS011;23928;47.562;7.508;2023-11-21T03:20:40;1.80;;;0.60;;
38117;SDS011;23928;47.562;7.508;2023-11-21T03:23:06;1.97;;;0.40;;
38117;SDS011;23928;47.562;7.508;2023-11-21T03:25:32;1.27;;;0.43;;
38117;SDS011;23928;47.562;7.508;2023-11-21T03:27:57;1.70;;;0.40;;
38117;SDS011;23928;47.562;7.508;2023-11-21T03:30:23;1.33;;;0.20;;
38117;SDS011;23928;47.562;7.508;2023-11-21T03:32:48;0.30;;;0.30;;
38117;SDS011;23928;47.562;7.508;2023-11-21T03:35:14;0.90;;;0.40;;
38117;SDS011;23928;47.562;7.508;2023-11-21T03:37:40;1.03;;;0.40;;
38117;SDS011;23928;47.562;7.508;2023-11-21T03:40:07;1.70;;;0.47;;
38117;SDS011;23928;47.562;7.508;2023-11-21T03:42:37;1.30;;;0.30;;
38117;SDS011;23928;47.562;7.508;2023-11-21T03:45:04;1.67;;;0.30;;
38117;SDS011;23928;47.562;7.508;2023-11-21T03:47:30;0.87;;;0.23;;
38117;SDS011;23928;47.562;7.508;2023-11-21T03:49:56;0.33;;;0.20;;
38117;SDS011;23928;47.562;7.508;2023-11-21T03:52:21;0.10;;;0.10;;
38117;SDS011;23928;47.562;7.508;2023-11-21T03:54:47;2.90;;;0.40;;
38117;SDS011;23928;47.562;7.508;2023-11-21T03:57:12;0.37;;;0.30;;
38117;SDS011;23928;47.562;7.508;2023-11-21T03:59:41;1.27;;;0.40;;
38117;SDS011;23928;47.562;7.508;2023-11-21T04:02:08;2.50;;;0.50;;
38117;SDS011;23928;47.562;7.508;2023-11-21T04:04:34;0.43;;;0.23;;
38117;SDS011;23928;47.562;7.508;2023-11-21T04:07:01;0.40;;;0.40;;
38117;SDS011;23928;47.562;7.508;2023-11-21T04:09:26;1.27;;;0.37;;
38117;SDS011;23928;47.562;7.508;2023-11-21T04:11:53;1.17;;;0.30;;
38117;SDS011;23928;47.562;7.508;2023-11-21T04:14:19;0.77;;;0.30;;
38117;SDS011;23928;47.562;7.508;2023-11-21T04:16:45;0.23;;;0.20;;
38117;SDS011;23928;47.562;7.508;2023-11-21T04:19:10;0.47;;;0.40;;
38117;SDS011;23928;47.562;7.508;2023-11-21T04:21:39;0.93;;;0.30;;
38117;SDS011;23928;47.562;7.508;2023-11-21T04:24:05;0.20;;;0.20;;
38117;SDS011;23928;47.562;7.508;2023-11-21T04:26:31;0.73;;;0.30;;
38117;SDS011;23928;47.562;7.508;2023-11-21T04:28:57;0.60;;;0.43;;
38117;SDS011;23928;47.562;7.508;2023-11-21T04:31:23;0.63;;;0.30;;
38117;SDS011;23928;47.562;7.508;2023-11-21T04:33:48;1.63;;;0.20;;
38117;SDS011;23928;47.562;7.508;2023-11-21T04:36:14;1.13;;;0.40;;
38117;SDS011;23928;47.562;7.508;2023-11-21T04:38:39;0.27;;;0.27;;
38117;SDS011;23928;47.562;7.508;2023-11-21T04:41:06;0.40;;;0.30;;
38117;SDS011;23928;47.562;7.508;2023-11-21T04:43:31;0.40;;;0.20;;
38117;SDS011;23928;47.562;7.508;2023-11-21T04:45:57;0.20;;;0.20;;
38117;SDS011;23928;47.562;7.508;2023-11-21T04:48:22;1.00;;;0.30;;
38117;SDS011;23928;47.562;7.508;2023-11-21T04:50:48;1.27;;;0.20;;
38117;SDS011;23928;47.562;7.508;2023-11-21T04:53:14;0.70;;;0.30;;
38117;SDS011;23928;47.562;7.508;2023-11-21T04:55:40;0.63;;;0.33;;
38117;SDS011;23928;47.562;7.508;2023-11-21T04:58:06;0.40;;;0.40;;
38117;SDS011;23928;47.562;7.508;2023-11-21T05:00:33;0.40;;;0.27;;
38117;SDS011;23928;47.562;7.508;2023-11-21T05:02:59;2.30;;;0.50;;
38117;SDS011;23928;47.562;7.508;2023-11-21T05:05:26;0.10;;;0.10;;
38117;SDS011;23928;47.562;7.508;2023-11-21T05:07:52;1.43;;;0.40;;
38117;SDS011;23928;47.562;7.508;2023-11-21T05:10:18;0.20;;;0.20;;
38117;SDS011;23928;47.562;7.508;2023-11-21T05:12:44;0.93;;;0.40;;
38117;SDS011;23928;47.562;7.508;2023-11-21T05:15:13;0.33;;;0.33;;
38117;SDS011;23928;47.562;7.508;2023-11-21T05:17:40;0.20;;;0.20;;
38117;SDS011;23928;47.562;7.508;2023-11-21T05:20:09;0.20;;;0.20;;
38117;SDS011;23928;47.562;7.508;2023-11-21T05:22:37;1.30;;;0.40;;
38117;SDS011;23928;47.562;7.508;2023-11-21T05:25:03;1.03;;;0.30;;
38117;SDS011;23928;47.562;7.508;2023-11-21T05:27:30;0.30;;;0.30;;
38117;SDS011;23928;47.562;7.508;2023-11-21T05:29:56;0.10;;;0.10;;
38117;SDS011;23928;47.562;7.508;2023-11-21T05:32:23;1.80;;;0.20;;
38117;SDS011;23928;47.562;7.508;2023-11-21T05:34:52;0.53;;;0.30;;
38117;SDS011;23928;47.562;7.508;2023-11-21T05:37:17;0.80;;;0.30;;
38117;SDS011;23928;47.562;7.508;2023-11-21T05:39:43;0.33;;;0.33;;
38117;SDS011;23928;47.562;7.508;2023-11-21T05:42:09;3.07;;;0.33;;
38117;SDS011;23928;47.562;7.508;2023-11-21T05:44:35;0.90;;;0.20;;
38117;SDS011;23928;47.562;7.508;2023-11-21T05:47:02;0.57;;;0.37;;
38117;SDS011;23928;47.562;7.508;2023-11-21T05:49:28;1.03;;;0.40;;
38117;SDS011;23928;47.562;7.508;2023-11-21T05:51:54;2.70;;;0.50;;
38117;SDS011;23928;47.562;7.508;2023-11-21T05:54:21;0.40;;;0.40;;
38117;SDS011;23928;47.562;7.508;2023-11-21T05:56:47;0.37;;;0.37;;
38117;SDS011;23928;47.562;7.508;2023-11-21T05:59:12;2.30;;;0.80;;
38117;SDS011;23928;47.562;7.508;2023-11-21T06:01:38;1.30;;;0.47;;
38117;SDS011;23928;47.562;7.508;2023-11-21T06:04:04;0.83;;;0.60;;
38117;SDS011;23928;47.562;7.508;2023-11-21T06:06:30;0.60;;;0.60;;
38117;SDS011;23928;47.562;7.508;2023-11-21T06:08:56;2.20;;;0.83;;
38117;SDS011;23928;47.562;7.508;2023-11-21T06:11:22;1.67;;;0.63;;
38117;SDS011;23928;47.562;7.508;2023-11-21T06:13:48;1.50;;;0.90;;
38117;SDS011;23928;47.562;7.508;2023-11-21T06:16:14;1.83;;;1.10;;
38117;SDS011;23928;47.562;7.508;2023-11-21T06:18:42;1.27;;;0.70;;
38117;SDS011;23928;47.562;7.508;2023-11-21T06:21:12;1.13;;;0.87;;
38117;SDS011;23928;47.562;7.508;2023-11-21T06:23:38;1.07;;;0.70;;
38117;SDS011;23928;47.562;7.508;2023-11-21T06:26:04;0.57;;;0.50;;
38117;SDS011;23928;47.562;7.508;2023-11-21T06:28:31;1.40;;;0.67;;
38117;SDS011;23928;47.562;7.508;2023-11-21T06:30:57;0.90;;;0.60;;
38117;SDS011;23928;47.562;7.508;2023-11-21T06:33:23;0.83;;;0.63;;
38117;SDS011;23928;47.562;7.508;2023-11-21T06:35:50;0.83;;;0.30;;
38117;SDS011;23928;47.562;7.508;2023-11-21T06:38:16;0.60;;;0.30;;
38117;SDS011;23928;47.562;7.508;2023-11-21T06:40:41;0.87;;;0.30;;
38117;SDS011;23928;47.562;7.508;2023-11-21T06:43:07;1.37;;;0.40;;
38117;SDS011;23928;47.562;7.508;2023-11-21T06:45:33;0.30;;;0.30;;
38117;SDS011;23928;47.562;7.508;2023-11-21T06:47:59;3.33;;;1.30;;
38117;SDS011;23928;47.562;7.508;2023-11-21T06:50:25;0.97;;;0.60;;
38117;SDS011;23928;47.562;7.508;2023-11-21T06:52:51;0.77;;;0.70;;
38117;SDS011;23928;47.562;7.508;2023-11-21T06:55:16;1.60;;;0.60;;
38117;SDS011;23928;47.562;7.508;2023-11-21T06:57:42;0.83;;;0.83;;
38117;SDS011;23928;47.562;7.508;2023-11-21T07:00:08;2.43;;;0.80;;
38117;SDS011;23928;47.562;7.508;2023-11-21T07:02:34;0.80;;;0.80;;
38117;SDS011;23928;47.562;7.508;2023-11-21T07:05:00;1.17;;;0.80;;
38117;SDS011;23928;47.562;7.508;2023-11-21T07:07:27;0.70;;;0.70;;
38117;SDS011;23928;47.562;7.508;2023-11-21T07:09:52;0.97;;;0.70;;
38117;SDS011;23928;47.562;7.508;2023-11-21T07:12:18;0.50;;;0.50;;
38117;SDS011;23928;47.562;7.508;2023-11-21T07:14:44;0.40;;;0.40;;
38117;SDS011;23928;47.562;7.508;2023-11-21T07:17:10;2.20;;;0.63;;
38117;SDS011;23928;47.562;7.508;2023-11-21T07:19:37;0.87;;;0.50;;
38117;SDS011;23928;47.562;7.508;2023-11-21T07:22:03;0.50;;;0.50;;
38117;SDS011;23928;47.562;7.508;2023-11-21T07:24:30;0.43;;;0.43;;
38117;SDS011;23928;47.562;7.508;2023-11-21T07:26:57;1.63;;;0.43;;
38117;SDS011;23928;47.562;7.508;2023-11-21T07:29:25;1.03;;;0.73;;
38117;SDS011;23928;47.562;7.508;2023-11-21T07:31:51;0.60;;;0.60;;
38117;SDS011;23928;47.562;7.508;2023-11-21T07:34:17;1.50;;;0.90;;
38117;SDS011;23928;47.562;7.508;2023-11-21T07:36:44;1.60;;;1.50;;
38117;SDS011;23928;47.562;7.508;2023-11-21T07:39:10;1.53;;;1.43;;
38117;SDS011;23928;47.562;7.508;2023-11-21T07:41:35;2.80;;;1.63;;
38117;SDS011;23928;47.562;7.508;2023-11-21T07:44:03;1.47;;;1.00;;
38117;SDS011;23928;47.562;7.508;2023-11-21T07:46:28;1.53;;;0.80;;
38117;SDS011;23928;47.562;7.508;2023-11-21T07:48:54;1.00;;;0.80;;
38117;SDS011;23928;47.562;7.508;2023-11-21T07:51:20;1.73;;;0.80;;
38117;SDS011;23928;47.562;7.508;2023-11-21T07:53:45;1.87;;;1.20;;
38117;SDS011;23928;47.562;7.508;2023-11-21T07:56:11;1.00;;;1.00;;
38117;SDS011;23928;47.562;7.508;2023-11-21T07:58:37;1.23;;;1.13;;
38117;SDS011;23928;47.562;7.508;2023-11-21T08:01:03;1.03;;;1.00;;
38117;SDS011;23928;47.562;7.508;2023-11-21T08:03:29;0.57;;;0.57;;
38117;SDS011;23928;47.562;7.508;2023-11-21T08:05:59;0.77;;;0.77;;
38117;SDS011;23928;47.562;7.508;2023-11-21T08:08:25;0.60;;;0.60;;
38117;SDS011;23928;47.562;7.508;2023-11-21T08:10:51;1.80;;;0.53;;
38117;SDS011;23928;47.562;7.508;2023-11-21T08:13:27;0.70;;;0.70;;
38117;SDS011;23928;47.562;7.508;2023-11-21T08:15:54;0.67;;;0.67;;
38117;SDS011;23928;47.562;7.508;2023-11-21T08:18:21;0.80;;;0.80;;
38117;SDS011;23928;47.562;7.508;2023-11-21T08:20:47;0.67;;;0.67;;
38117;SDS011;23928;47.562;7.508;2023-11-21T08:23:14;1.23;;;0.67;;
38117;SDS011;23928;47.562;7.508;2023-11-21T08:25:42;0.70;;;0.70;;
38117;SDS011;23928;47.562;7.508;2023-11-21T08:28:11;1.17;;;0.80;;
38117;SDS011;23928;47.562;7.508;2023-11-21T08:30:37;0.60;;;0.60;;
38117;SDS011;23928;47.562;7.508;2023-11-21T08:33:03;1.27;;;0.70;;
38117;SDS011;23928;47.562;7.508;2023-11-21T08:35:28;0.70;;;0.53;;
38117;SDS011;23928;47.562;7.508;2023-11-21T08:37:55;0.80;;;0.80;;
38117;SDS011;23928;47.562;7.508;2023-11-21T08:40:21;0.50;;;0.50;;
38117;SDS011;23928;47.562;7.508;2023-11-21T08:42:47;1.40;;;0.53;;
38117;SDS011;23928;47.562;7.508;2023-11-21T08:45:13;1.50;;;0.77;;
38117;SDS011;23928;47.562;7.508;2023-11-21T08:47:42;0.70;;;0.70;;
38117;SDS011;23928;47.562;7.508;2023-11-21T08:50:09;1.00;;;0.80;;
38117;SDS011;23928;47.562;7.508;2023-11-21T08:52:35;1.33;;;0.90;;
38117;SDS011;23928;47.562;7.508;2023-11-21T08:55:02;0.57;;;0.57;;
38117;SDS011;23928;47.562;7.508;2023-11-21T08:57:33;0.70;;;0.50;;
38117;SDS011;23928;47.562;7.508;2023-11-21T09:00:06;0.90;;;0.90;;
38117;SDS011;23928;47.562;7.508;2023-11-21T09:02:37;0.77;;;0.70;;
38117;SDS011;23928;47.562;7.508;2023-11-21T09:05:07;2.07;;;0.80;;
38117;SDS011;23928;47.562;7.508;2023-11-21T09:07:34;0.90;;;0.80;;
38117;SDS011;23928;47.562;7.508;2023-11-21T09:10:01;1.33;;;1.00;;
38117;SDS011;23928;47.562;7.508;2023-11-21T09:12:28;2.53;;;1.30;;
38117;SDS011;23928;47.562;7.508;2023-11-21T09:14:53;0.83;;;0.83;;
38117;SDS011;23928;47.562;7.508;2023-11-21T09:17:19;1.90;;;1.00;;
38117;SDS011;23928;47.562;7.508;2023-11-21T09:19:44;1.40;;;0.60;;
38117;SDS011;23928;47.562;7.508;2023-11-21T09:22:14;2.00;;;0.60;;
38117;SDS011;23928;47.562;7.508;2023-11-21T09:24:43;0.93;;;0.67;;
38117;SDS011;23928;47.562;7.508;2023-11-21T09:27:09;2.20;;;0.67;;
38117;SDS011;23928;47.562;7.508;2023-11-21T09:29:37;1.77;;;0.90;;
38117;SDS011;23928;47.562;7.508;2023-11-21T09:32:04;0.80;;;0.70;;
38117;SDS011;23928;47.562;7.508;2023-11-21T09:34:31;1.80;;;0.83;;
38117;SDS011;23928;47.562;7.508;2023-11-21T09:36:58;0.80;;;0.80;;
38117;SDS011;23928;47.562;7.508;2023-11-21T09:39:24;2.20;;;0.90;;
38117;SDS011;23928;47.562;7.508;2023-11-21T09:41:50;0.77;;;0.77;;
38117;SDS011;23928;47.562;7.508;2023-11-21T09:47:26;1.20;;;1.10;;
38117;SDS011;23928;47.562;7.508;2023-11-21T09:49:52;1.20;;;1.10;;
38117;SDS011;23928;47.562;7.508;2023-11-21T09:52:24;1.40;;;0.97;;
38117;SDS011;23928;47.562;7.508;2023-11-21T09:54:52;2.63;;;1.20;;
38117;SDS011;23928;47.562;7.508;2023-11-21T09:57:21;2.83;;;1.43;;
38117;SDS011;23928;47.562;7.508;2023-11-21T09:59:50;1.27;;;1.13;;
38117;SDS011;23928;47.562;7.508;2023-11-21T10:02:20;1.50;;;1.10;;
38117;SDS011;23928;47.562;7.508;2023-11-21T10:04:51;1.63;;;0.93;;
38117;SDS011;23928;47.562;7.508;2023-11-21T10:07:17;1.77;;;1.10;;
38117;SDS011;23928;47.562;7.508;2023-11-21T10:09:44;1.30;;;1.20;;
38117;SDS011;23928;47.562;7.508;2023-11-21T10:12:10;1.10;;;1.00;;
38117;SDS011;23928;47.562;7.508;2023-11-21T10:14:40;1.30;;;1.20;;
38117;SDS011;23928;47.562;7.508;2023-11-21T10:17:07;1.30;;;1.20;;
38117;SDS011;23928;47.562;7.508;2023-11-21T10:19:37;2.73;;;1.30;;
38117;SDS011;23928;47.562;7.508;2023-11-21T10:22:04;1.40;;;1.20;;
38117;SDS011;23928;47.562;7.508;2023-11-21T10:24:32;1.60;;;1.17;;
38117;SDS011;23928;47.562;7.508;2023-11-21T10:26:58;1.53;;;1.30;;
38117;SDS011;23928;47.562;7.508;2023-11-21T10:29:24;2.93;;;1.90;;
38117;SDS011;23928;47.562;7.508;2023-11-21T10:31:51;1.40;;;1.30;;
38117;SDS011;23928;47.562;7.508;2023-11-21T10:34:20;1.40;;;1.30;;
38117;SDS011;23928;47.562;7.508;2023-11-21T10:36:46;1.10;;;1.00;;
38117;SDS011;23928;47.562;7.508;2023-11-21T10:39:18;1.47;;;1.37;;
38117;SDS011;23928;47.562;7.508;2023-11-21T10:41:48;4.00;;;1.07;;
38117;SDS011;23928;47.562;7.508;2023-11-21T10:44:14;1.50;;;1.23;;
38117;SDS011;23928;47.562;7.508;2023-11-21T10:46:49;0.83;;;0.83;;
38117;SDS011;23928;47.562;7.508;2023-11-21T10:49:19;1.90;;;1.00;;
38117;SDS011;23928;47.562;7.508;2023-11-21T10:51:45;0.93;;;0.87;;
38117;SDS011;23928;47.562;7.508;2023-11-21T10:54:16;1.33;;;1.00;;
38117;SDS011;23928;47.562;7.508;2023-11-21T10:56:43;1.30;;;1.00;;
38117;SDS011;23928;47.562;7.508;2023-11-21T10:59:10;1.10;;;1.00;;
38117;SDS011;23928;47.562;7.508;2023-11-21T11:01:39;1.20;;;1.10;;
38117;SDS011;23928;47.562;7.508;2023-11-21T11:04:08;1.30;;;1.20;;
38117;SDS011;23928;47.562;7.508;2023-11-21T11:06:39;1.07;;;1.07;;
38117;SDS011;23928;47.562;7.508;2023-11-21T11:09:06;1.20;;;1.10;;
38117;SDS011;23928;47.562;7.508;2023-11-21T11:11:33;1.47;;;1.20;;
38117;SDS011;23928;47.562;7.508;2023-11-21T11:14:01;2.37;;;1.20;;
38117;SDS011;23928;47.562;7.508;2023-11-21T11:16:28;1.70;;;1.40;;
38117;SDS011;23928;47.562;7.508;2023-11-21T11:18:54;1.30;;;1.20;;
38117;SDS011;23928;47.562;7.508;2023-11-21T11:21:42;2.73;;;1.10;;
38117;SDS011;23928;47.562;7.508;2023-11-21T11:24:27;2.00;;;1.30;;
38117;SDS011;23928;47.562;7.508;2023-11-21T11:27:10;1.40;;;1.07;;
38117;SDS011;23928;47.562;7.508;2023-11-21T11:35:17;0.70;;;0.70;;
38117;SDS011;23928;47.562;7.508;2023-11-21T11:37:49;2.53;;;1.37;;
38117;SDS011;23928;47.562;7.508;2023-11-21T11:40:15;1.20;;;1.00;;
38117;SDS011;23928;47.562;7.508;2023-11-21T11:42:54;1.50;;;1.00;;
38117;SDS011;23928;47.562;7.508;2023-11-21T11:45:22;1.90;;;1.10;;
38117;SDS011;23928;47.562;7.508;2023-11-21T11:47:56;2.03;;;1.13;;
38117;SDS011;23928;47.562;7.508;2023-11-21T11:50:22;1.27;;;1.13;;
38117;SDS011;23928;47.562;7.508;2023-11-21T11:52:50;1.10;;;0.90;;
38117;SDS011;23928;47.562;7.508;2023-11-21T11:55:20;2.50;;;1.27;;
38117;SDS011;23928;47.562;7.508;2023-11-21T11:57:47;1.30;;;0.83;;
38117;SDS011;23928;47.562;7.508;2023-11-21T12:00:18;1.07;;;1.00;;
38117;SDS011;23928;47.562;7.508;2023-11-21T12:02:50;1.63;;;0.90;;
38117;SDS011;23928;47.562;7.508;2023-11-21T12:05:22;1.10;;;1.00;;
38117;SDS011;23928;47.562;7.508;2023-11-21T12:07:50;1.30;;;1.10;;
38117;SDS011;23928;47.562;7.508;2023-11-21T12:10:19;1.43;;;1.10;;
38117;SDS011;23928;47.562;7.508;2023-11-21T12:12:54;2.43;;;1.00;;
38117;SDS011;23928;47.562;7.508;2023-11-21T12:15:21;0.97;;;0.80;;
38117;SDS011;23928;47.562;7.508;2023-11-21T12:17:48;0.60;;;0.60;;
38117;SDS011;23928;47.562;7.508;2023-11-21T12:20:16;3.73;;;0.70;;
38117;SDS011;23928;47.562;7.508;2023-11-21T12:22:44;1.03;;;0.80;;
38117;SDS011;23928;47.562;7.508;2023-11-21T12:25:17;1.03;;;0.80;;
38117;SDS011;23928;47.562;7.508;2023-11-21T12:27:53;0.83;;;0.83;;
38117;SDS011;23928;47.562;7.508;2023-11-21T12:30:20;4.50;;;1.57;;
38117;SDS011;23928;47.562;7.508;2023-11-21T12:32:53;1.33;;;1.10;;
38117;SDS011;23928;47.562;7.508;2023-11-21T12:35:30;2.43;;;1.03;;
38117;SDS011;23928;47.562;7.508;2023-11-21T12:37:59;1.40;;;1.30;;
38117;SDS011;23928;47.562;7.508;2023-11-21T12:40:27;2.33;;;1.40;;
38117;SDS011;23928;47.562;7.508;2023-11-21T12:42:54;3.03;;;1.30;;
38117;SDS011;23928;47.562;7.508;2023-11-21T12:45:26;2.47;;;1.53;;
38117;SDS011;23928;47.562;7.508;2023-11-21T12:50:24;2.00;;;1.10;;
38117;SDS011;23928;47.562;7.508;2023-11-21T12:53:09;1.77;;;1.30;;
38117;SDS011;23928;47.562;7.508;2023-11-21T12:55:42;2.83;;;1.20;;
38117;SDS011;23928;47.562;7.508;2023-11-21T12:58:14;2.73;;;1.50;;
38117;SDS011;23928;47.562;7.508;2023-11-21T13:00:47;2.20;;;1.20;;
38117;SDS011;23928;47.562;7.508;2023-11-21T13:03:14;1.20;;;1.10;;
38117;SDS011;23928;47.562;7.508;2023-11-21T13:05:42;2.20;;;1.83;;
38117;SDS011;23928;47.562;7.508;2023-11-21T13:08:10;2.90;;;1.60;;
38117;SDS011;23928;47.562;7.508;2023-11-21T13:10:38;2.43;;;1.83;;
38117;SDS011;23928;47.562;7.508;2023-11-21T13:13:11;3.97;;;1.93;;
38117;SDS011;23928;47.562;7.508;2023-11-21T13:15:47;5.77;;;2.40;;
38117;SDS011;23928;47.562;7.508;2023-11-21T13:18:14;3.17;;;2.00;;
38117;SDS011;23928;47.562;7.508;2023-11-21T13:20:41;3.77;;;1.80;;
38117;SDS011;23928;47.562;7.508;2023-11-21T13:23:08;4.43;;;1.97;;
38117;SDS011;23928;47.562;7.508;2023-11-21T13:25:37;2.83;;;2.17;;
38117;SDS011;23928;47.562;7.508;2023-11-21T13:28:06;1.87;;;1.67;;
38117;SDS011;23928;47.562;7.508;2023-11-21T13:30:34;3.13;;;1.93;;
38117;SDS011;23928;47.562;7.508;2023-11-21T13:33:01;2.30;;;2.10;;
38117;SDS011;23928;47.562;7.508;2023-11-21T13:35:34;3.50;;;2.33;;
38117;SDS011;23928;47.562;7.508;2023-11-21T13:38:08;5.17;;;2.20;;
38117;SDS011;23928;47.562;7.508;2023-11-21T13:40:38;4.23;;;2.00;;
38117;SDS011;23928;47.562;7.508;2023-11-21T13:43:09;3.03;;;1.77;;
38117;SDS011;23928;47.562;7.508;2023-11-21T13:45:36;2.13;;;1.70;;
38117;SDS011;23928;47.562;7.508;2023-11-21T13:48:03;1.87;;;1.60;;
38117;SDS011;23928;47.562;7.508;2023-11-21T13:50:32;2.17;;;1.70;;
38117;SDS011;23928;47.562;7.508;2023-11-21T13:52:59;2.17;;;1.53;;
38117;SDS011;23928;47.562;7.508;2023-11-21T13:55:35;2.43;;;1.93;;
38117;SDS011;23928;47.562;7.508;2023-11-21T13:58:02;2.33;;;1.53;;
38117;SDS011;23928;47.562;7.508;2023-11-21T14:00:29;2.33;;;1.57;;
38117;SDS011;23928;47.562;7.508;2023-11-21T14:03:11;2.47;;;1.33;;
38117;SDS011;23928;47.562;7.508;2023-11-21T14:05:46;1.80;;;1.57;;
38117;SDS011;23928;47.562;7.508;2023-11-21T14:08:16;1.30;;;1.20;;
38117;SDS011;23928;47.562;7.508;2023-11-21T14:10:46;1.40;;;1.30;;
38117;SDS011;23928;47.562;7.508;2023-11-21T14:13:22;1.57;;;1.47;;
38117;SDS011;23928;47.562;7.508;2023-11-21T14:15:52;3.63;;;2.73;;
38117;SDS011;23928;47.562;7.508;2023-11-21T14:18:27;2.70;;;1.43;;
38117;SDS011;23928;47.562;7.508;2023-11-21T14:21:03;1.53;;;1.13;;
38117;SDS011;23928;47.562;7.508;2023-11-21T14:23:33;1.97;;;1.40;;
38117;SDS011;23928;47.562;7.508;2023-11-21T14:26:01;2.23;;;1.40;;
38117;SDS011;23928;47.562;7.508;2023-11-21T14:28:26;1.63;;;1.13;;
38117;SDS011;23928;47.562;7.508;2023-11-21T14:30:52;2.00;;;1.73;;
38117;SDS011;23928;47.562;7.508;2023-11-21T14:33:18;1.33;;;1.13;;
38117;SDS011;23928;47.562;7.508;2023-11-21T14:35:43;2.57;;;1.93;;
38117;SDS011;23928;47.562;7.508;2023-11-21T14:38:09;1.77;;;1.50;;
38117;SDS011;23928;47.562;7.508;2023-11-21T14:40:36;2.90;;;1.70;;
38117;SDS011;23928;47.562;7.508;2023-11-21T14:43:02;1.93;;;1.60;;
38117;SDS011;23928;47.562;7.508;2023-11-21T14:45:31;2.73;;;1.33;;
38117;SDS011;23928;47.562;7.508;2023-11-21T14:47:57;1.97;;;1.80;;
38117;SDS011;23928;47.562;7.508;2023-11-21T14:50:31;3.40;;;1.60;;
38117;SDS011;23928;47.562;7.508;2023-11-21T14:53:06;1.60;;;1.50;;
38117;SDS011;23928;47.562;7.508;2023-11-21T14:55:33;3.43;;;1.70;;
38117;SDS011;23928;47.562;7.508;2023-11-21T14:58:17;2.10;;;1.60;;
38117;SDS011;23928;47.562;7.508;2023-11-21T15:00:56;2.30;;;1.80;;